createdAt,value
2023-03-21T05:28:20.257Z,26.20
2023-03-21T05:30:47.747Z,22.07
2023-03-21T05:33:15.114Z,28.73
2023-03-21T05:35:42.127Z,20.47
2023-03-21T05:38:09.406Z,22.55
2023-03-21T05:40:36.519Z,21.00
2023-03-21T05:43:03.725Z,19.17
2023-03-21T05:45:31.021Z,24.35
2023-03-21T05:47:58.217Z,22.48
2023-03-21T05:50:25.550Z,35.83
2023-03-21T05:52:52.550Z,23.52
2023-03-21T05:55:19.806Z,21.48
2023-03-21T05:57:46.892Z,21.38
2023-03-21T06:00:15.056Z,22.33
2023-03-21T06:02:42.294Z,21.15
2023-03-21T06:05:09.818Z,22.10
2023-03-21T06:07:37.233Z,19.73
2023-03-21T06:10:05.840Z,22.52
2023-03-21T06:12:33.006Z,19.45
2023-03-21T06:15:01.256Z,20.10
2023-03-21T06:17:28.317Z,16.92
2023-03-21T06:19:55.748Z,19.43
2023-03-21T06:22:22.903Z,18.88
2023-03-21T06:24:50.016Z,19.77
2023-03-21T06:27:17.252Z,19.00
2023-03-21T06:29:46.218Z,18.33
2023-03-21T06:32:13.932Z,18.70
2023-03-21T06:34:41.108Z,19.25
2023-03-21T06:37:08.408Z,19.60
2023-03-21T06:39:36.058Z,20.27
2023-03-21T06:42:03.855Z,21.70
2023-03-21T06:44:31.101Z,22.48
2023-03-21T06:46:58.291Z,24.05
2023-03-21T06:49:27.499Z,25.90
2023-03-21T06:51:54.554Z,21.10
2023-03-21T06:54:21.717Z,25.67
2023-03-21T06:56:48.873Z,26.40
2023-03-21T06:59:16.160Z,26.48
2023-03-21T07:01:43.230Z,27.67
2023-03-21T07:04:11.181Z,30.65
2023-03-21T07:06:38.264Z,27.30
2023-03-21T07:09:06.591Z,28.48
2023-03-21T07:11:34.583Z,31.30
2023-03-21T07:14:01.710Z,32.60
2023-03-21T07:16:28.861Z,30.45
2023-03-21T07:18:56.651Z,29.42
2023-03-21T07:21:23.854Z,28.67
2023-03-21T07:23:50.998Z,31.87
2023-03-21T07:26:18.537Z,52.30
2023-03-21T07:28:46.075Z,29.92
2023-03-21T07:31:17.336Z,30.87
2023-03-21T07:33:44.541Z,27.67
2023-03-21T07:36:15.678Z,27.73
2023-03-21T07:38:44.569Z,27.93
2023-03-21T07:41:12.222Z,29.67
2023-03-21T07:43:39.594Z,29.03
2023-03-21T07:46:06.869Z,30.63
2023-03-21T07:48:34.415Z,31.47
2023-03-21T07:51:02.413Z,31.77
2023-03-21T07:53:29.596Z,31.07
2023-03-21T07:55:56.943Z,31.57
2023-03-21T07:58:25.067Z,29.97
2023-03-21T08:00:52.981Z,32.83
2023-03-21T08:03:20.556Z,31.33
2023-03-21T08:05:47.792Z,28.57
2023-03-21T08:08:14.806Z,26.13
2023-03-21T08:10:44.427Z,34.50
2023-03-21T08:13:13.299Z,31.90
2023-03-21T08:15:42.343Z,29.30
2023-03-21T08:18:11.296Z,27.07
2023-03-21T08:20:38.896Z,30.33
2023-03-21T08:23:06.127Z,27.10
2023-03-21T08:25:33.346Z,28.97
2023-03-21T08:28:00.902Z,28.73
2023-03-21T08:30:29.374Z,27.07
2023-03-21T08:33:01.314Z,27.60
2023-03-21T08:35:30.527Z,25.77
2023-03-21T08:37:58.102Z,25.27
2023-03-21T08:40:25.899Z,27.47
2023-03-21T08:42:53.060Z,26.40
2023-03-21T08:45:20.845Z,26.60
2023-03-21T08:47:47.821Z,25.80
2023-03-21T08:50:22.089Z,25.90
2023-03-21T08:52:49.716Z,26.33
2023-03-21T08:55:19.113Z,23.73
2023-03-21T08:57:46.661Z,26.40
2023-03-21T09:00:20.830Z,23.43
2023-03-21T09:02:51.478Z,29.33
2023-03-21T09:05:19.704Z,24.20
2023-03-21T09:07:47.260Z,24.70
2023-03-21T09:10:22.810Z,21.87
2023-03-21T09:12:53.815Z,24.10
2023-03-21T09:15:24.646Z,25.93
2023-03-21T09:17:54.416Z,22.40
2023-03-21T09:20:30.746Z,24.20
2023-03-21T09:22:59.260Z,24.73
2023-03-21T09:25:31.750Z,20.80
2023-03-21T09:28:00.967Z,26.97
2023-03-21T09:30:29.536Z,21.80
2023-03-21T09:32:57.028Z,24.27
2023-03-21T09:35:24.981Z,27.43
2023-03-21T09:37:52.614Z,23.70
2023-03-21T09:41:05.977Z,25.35
2023-03-21T09:43:42.696Z,23.75
2023-03-21T09:46:37.141Z,21.65
2023-03-21T09:49:41.584Z,24.13
2023-03-21T09:52:29.038Z,27.35
2023-03-21T09:54:56.533Z,24.25
2023-03-21T09:57:40.069Z,25.33
2023-03-21T10:00:25.826Z,22.85
2023-03-21T10:02:59.837Z,25.05
2023-03-21T10:05:30.572Z,22.63
2023-03-21T10:08:09.955Z,25.05
2023-03-21T10:11:01.370Z,24.23
2023-03-21T10:13:33.393Z,25.80
2023-03-21T10:16:17.406Z,20.45
2023-03-21T10:18:45.105Z,25.13
2023-03-21T10:21:56.642Z,20.48
2023-03-21T10:24:22.842Z,22.98
2023-03-21T10:26:51.887Z,20.33
2023-03-21T10:29:24.452Z,24.90
2023-03-21T10:31:53.110Z,22.70
2023-03-21T10:34:43.063Z,22.85
2023-03-21T10:37:13.195Z,19.67
2023-03-21T10:39:47.184Z,18.67
2023-03-21T10:42:24.845Z,20.45
2023-03-21T10:44:55.145Z,21.00
2023-03-21T10:47:31.773Z,20.95
2023-03-21T10:52:34.606Z,20.43
2023-03-21T10:55:24.572Z,20.35
2023-03-21T10:58:19.031Z,19.90
2023-03-21T11:00:48.204Z,20.25
2023-03-21T11:03:33.949Z,20.67
2023-03-21T11:06:22.574Z,19.88
2023-03-21T11:08:56.124Z,21.17
2023-03-21T11:11:33.103Z,18.92
2023-03-21T11:14:07.149Z,19.45
2023-03-21T11:16:40.812Z,20.50
2023-03-21T11:19:27.800Z,18.85
2023-03-21T11:22:07.627Z,21.38
2023-03-21T11:24:36.192Z,18.65
2023-03-21T11:27:08.103Z,18.25
2023-03-21T11:29:41.261Z,21.60
2023-03-21T11:32:32.878Z,20.98
2023-03-21T11:35:21.584Z,19.23
2023-03-21T11:37:55.577Z,19.17
2023-03-21T11:40:36.827Z,19.25
2023-03-21T11:43:18.149Z,19.85
2023-03-21T11:46:11.085Z,19.80
2023-03-21T11:48:51.509Z,17.65
2023-03-21T11:51:30.116Z,16.97
2023-03-21T11:54:10.912Z,18.60
2023-03-21T11:57:08.228Z,19.38
2023-03-21T11:59:37.977Z,19.27
2023-03-21T12:03:07.993Z,18.58
2023-03-21T12:05:44.822Z,18.65
2023-03-21T12:08:40.707Z,20.25
2023-03-21T12:11:16.332Z,21.70
2023-03-21T12:14:10.761Z,23.02
2023-03-21T12:17:00.891Z,23.40
2023-03-21T12:19:46.305Z,25.13
2023-03-21T12:22:24.836Z,25.15
2023-03-21T12:24:57.541Z,24.50
2023-03-21T12:27:48.912Z,23.17
2023-03-21T12:30:28.262Z,23.50
2023-03-21T12:33:38.557Z,23.83
2023-03-21T12:36:38.678Z,24.63
2023-03-21T12:39:37.933Z,25.33
2023-03-21T12:42:34.494Z,22.63
2023-03-21T12:45:29.519Z,23.25
2023-03-21T12:48:27.899Z,21.60
2023-03-21T12:50:57.237Z,20.37
2023-03-21T12:54:01.226Z,18.73
2023-03-21T12:57:02.321Z,17.70
2023-03-21T12:59:57.040Z,16.00
2023-03-21T13:02:41.385Z,17.65
2023-03-21T13:05:28.119Z,15.07
2023-03-21T13:08:18.466Z,15.95
2023-03-21T13:10:47.158Z,14.30
2023-03-21T13:13:27.360Z,14.00
2023-03-21T13:16:07.360Z,14.90
2023-03-21T13:18:44.600Z,13.30
2023-03-21T13:21:33.816Z,13.52
2023-03-21T13:24:18.878Z,14.32
2023-03-21T13:26:55.809Z,12.90
2023-03-21T13:29:27.687Z,13.30
2023-03-21T13:32:08.812Z,11.57
2023-03-21T13:34:38.568Z,11.98
2023-03-21T13:37:06.053Z,12.63
2023-03-21T13:39:33.249Z,14.17
2023-03-21T13:42:06.692Z,11.02
2023-03-21T13:44:44.591Z,10.18
2023-03-21T13:47:49.705Z,11.27
2023-03-21T13:50:25.846Z,12.43
2023-03-21T13:53:15.949Z,9.45
2023-03-21T13:55:58.734Z,10.93
2023-03-21T13:58:50.420Z,9.45
2023-03-21T14:01:32.560Z,8.63
2023-03-21T14:04:16.036Z,10.20
2023-03-21T14:07:25.254Z,8.40
2023-03-21T14:10:30.267Z,8.98
2023-03-21T14:12:58.800Z,9.60
2023-03-21T14:16:01.012Z,12.75
2023-03-21T14:18:52.481Z,10.40
2023-03-21T14:21:30.402Z,11.63
2023-03-21T14:24:19.239Z,10.38
2023-03-21T14:26:51.018Z,11.25
2023-03-21T14:29:27.393Z,11.25
2023-03-21T14:31:56.655Z,12.00
2023-03-21T14:34:26.197Z,10.48
2023-03-21T14:36:58.057Z,11.00
2023-03-21T14:39:32.808Z,10.73
2023-03-21T14:42:11.244Z,10.27
2023-03-21T14:45:20.940Z,11.10
2023-03-21T14:48:16.423Z,9.95
2023-03-21T14:50:52.108Z,10.50
2023-03-21T14:53:36.406Z,10.05
2023-03-21T14:56:16.881Z,9.13
2023-03-21T14:58:47.630Z,9.13
2023-03-21T15:01:25.932Z,11.80
2023-03-21T15:03:53.124Z,11.50
2023-03-21T15:06:20.547Z,9.88
2023-03-21T15:09:01.235Z,10.83
2023-03-21T15:11:38.622Z,8.25
2023-03-21T15:14:13.346Z,9.30
2023-03-21T15:16:40.865Z,9.23
2023-03-21T15:19:14.333Z,10.32
2023-03-21T15:21:48.480Z,9.75
2023-03-21T15:24:34.195Z,7.00
2023-03-21T15:27:06.091Z,6.47
2023-03-21T15:29:37.061Z,8.13
2023-03-21T15:32:07.253Z,7.65
2023-03-21T15:34:34.523Z,10.03
2023-03-21T15:37:07.899Z,7.18
2023-03-21T15:39:36.470Z,8.68
2023-03-21T15:42:23.292Z,7.50
2023-03-21T15:44:56.533Z,8.88
2023-03-21T15:47:50.551Z,9.73
2023-03-21T15:50:38.603Z,8.85
2023-03-21T15:53:17.494Z,9.02
2023-03-21T15:55:52.275Z,8.95
2023-03-21T15:58:48.922Z,6.97
2023-03-21T16:01:20.239Z,6.80
2023-03-21T16:03:56.497Z,11.00
2023-03-21T16:06:33.731Z,7.68
2023-03-21T16:09:14.307Z,9.90
2023-03-21T16:11:53.274Z,8.25
2023-03-21T16:14:22.557Z,8.45
2023-03-21T16:16:51.024Z,9.23
2023-03-21T16:19:18.636Z,8.70
2023-03-21T16:21:46.965Z,7.78
2023-03-21T16:24:14.194Z,7.30
2023-03-21T16:26:50.694Z,8.65
2023-03-21T16:29:19.461Z,7.93
2023-03-21T16:31:49.348Z,10.73
2023-03-21T16:34:16.600Z,7.93
2023-03-21T16:36:44.175Z,8.55
2023-03-21T16:39:21.408Z,10.10
2023-03-21T16:41:50.655Z,8.65
2023-03-21T16:44:18.808Z,8.80
2023-03-21T16:46:47.310Z,7.70
2023-03-21T16:49:26.918Z,9.75
2023-03-21T16:51:56.390Z,9.35
2023-03-21T16:54:24.213Z,9.63
2023-03-21T16:56:54.888Z,13.50
2023-03-21T16:59:22.687Z,7.60
2023-03-21T17:01:50.567Z,9.70
2023-03-21T17:04:19.480Z,10.00
2023-03-21T17:06:50.280Z,9.73
2023-03-21T17:09:21.868Z,9.40
2023-03-21T17:11:49.653Z,10.27
2023-03-21T17:14:21.624Z,10.90
2023-03-21T17:16:48.955Z,10.65
2023-03-21T17:19:24.095Z,12.60
2023-03-21T17:21:51.183Z,8.98
2023-03-21T17:24:18.185Z,11.43
2023-03-21T17:26:45.691Z,11.00
2023-03-21T17:29:16.432Z,8.63
2023-03-21T17:31:47.401Z,10.70
2023-03-21T17:34:15.672Z,10.82
2023-03-21T17:36:44.683Z,14.48
2023-03-21T17:39:24.229Z,9.68
2023-03-21T17:41:53.006Z,14.07
2023-03-21T17:44:21.060Z,12.60
2023-03-21T17:46:50.418Z,9.18
2023-03-21T17:49:19.181Z,8.52
2023-03-21T17:51:47.122Z,12.63
2023-03-21T17:54:14.287Z,10.30
2023-03-21T17:56:42.211Z,12.73
2023-03-21T17:59:13.715Z,9.35
2023-03-21T18:01:41.568Z,8.90
2023-03-21T18:04:09.135Z,10.00
2023-03-21T18:06:37.601Z,9.93
2023-03-21T18:09:12.107Z,9.60
2023-03-21T18:11:40.450Z,11.20
2023-03-21T18:14:16.561Z,11.75
2023-03-21T18:16:46.066Z,11.55
2023-03-21T18:19:14.614Z,11.23
2023-03-21T18:21:45.482Z,10.27
2023-03-21T18:24:13.838Z,10.23
2023-03-21T18:26:41.792Z,10.60
2023-03-21T18:30:13.084Z,11.32
2023-03-21T18:32:07.020Z,11.82
2023-03-21T18:34:37.564Z,12.90
2023-03-21T18:37:07.991Z,10.73
2023-03-21T18:39:37.045Z,11.05
2023-03-21T18:42:05.602Z,11.32
2023-03-21T18:44:37.439Z,10.70
2023-03-21T18:47:06.626Z,10.57
2023-03-21T18:52:21.420Z,9.82
2023-03-21T18:54:49.038Z,10.35
2023-03-21T18:57:35.678Z,10.98
2023-03-21T19:00:13.164Z,13.95
2023-03-21T19:02:47.049Z,17.95
2023-03-21T19:05:19.549Z,17.55
2023-03-21T19:07:48.189Z,20.05
2023-03-21T19:10:19.932Z,12.50
2023-03-21T19:12:53.098Z,11.88
2023-03-21T19:15:21.909Z,12.35
2023-03-21T19:18:33.992Z,11.02
2023-03-21T19:20:44.590Z,11.30
2023-03-21T19:23:11.987Z,13.13
2023-03-21T19:25:39.161Z,13.82
2023-03-21T19:28:06.569Z,11.55
2023-03-21T19:30:34.199Z,12.40
2023-03-21T19:33:01.707Z,20.40
2023-03-21T19:35:29.021Z,12.70
2023-03-21T19:37:56.265Z,13.47
2023-03-21T19:40:23.995Z,14.13
2023-03-21T19:42:51.301Z,13.90
2023-03-21T19:45:18.397Z,19.90
2023-03-21T19:47:46.267Z,22.73
2023-03-21T19:50:47.375Z,31.70
2023-03-21T19:53:00.501Z,16.45
2023-03-21T19:55:27.607Z,35.35
2023-03-21T19:57:54.935Z,28.75
2023-03-21T20:00:22.512Z,14.63
2023-03-21T20:02:49.704Z,45.25
2023-03-21T20:05:22.043Z,18.35
2023-03-21T20:07:49.230Z,43.33
2023-03-21T20:10:16.755Z,17.15
2023-03-21T20:12:43.757Z,17.03
2023-03-21T20:15:17.553Z,15.38
2023-03-21T20:17:51.735Z,17.45
2023-03-21T20:20:19.517Z,22.17
2023-03-21T20:25:42.268Z,28.23
2023-03-21T20:28:16.402Z,19.70
2023-03-21T20:30:54.146Z,34.83
2023-03-21T20:33:21.693Z,18.30
2023-03-21T20:38:37.543Z,21.10
2023-03-21T20:41:06.852Z,33.92
2023-03-21T20:44:24.469Z,28.38
2023-03-21T20:46:28.420Z,20.70
2023-03-21T20:48:55.622Z,26.10
2023-03-21T20:54:11.251Z,21.00
2023-03-21T20:56:38.965Z,22.25
2023-03-21T20:59:17.673Z,22.45
2023-03-21T21:01:48.376Z,22.15
2023-03-21T21:04:19.985Z,21.50
2023-03-21T21:06:48.664Z,21.97
2023-03-21T21:09:16.928Z,21.90
2023-03-21T21:14:31.381Z,23.67
2023-03-21T21:17:02.598Z,22.97
2023-03-21T21:19:32.297Z,21.10
2023-03-21T21:21:59.265Z,21.92
2023-03-21T21:24:26.288Z,20.95
2023-03-21T21:26:53.761Z,20.63
2023-03-21T21:29:20.792Z,19.67
2023-03-21T21:31:50.771Z,20.90
2023-03-21T21:34:19.910Z,19.20
2023-03-21T21:36:47.493Z,18.77
2023-03-21T21:39:17.464Z,18.70
2023-03-21T21:41:44.522Z,19.00
2023-03-21T21:44:11.668Z,18.40
2023-03-21T21:46:39.128Z,18.30
2023-03-21T21:49:06.751Z,18.80
2023-03-21T21:51:34.172Z,18.90
2023-03-21T21:54:03.748Z,18.85
2023-03-21T21:56:38.478Z,19.38
2023-03-21T21:59:05.780Z,20.42
2023-03-21T22:01:38.690Z,20.90
2023-03-21T22:04:10.916Z,20.58
2023-03-21T22:06:38.075Z,20.20
2023-03-21T22:09:06.986Z,20.58
2023-03-21T22:11:34.200Z,21.02
2023-03-21T22:14:01.287Z,21.40
2023-03-21T22:16:28.509Z,21.45
2023-03-21T22:18:55.853Z,21.77
2023-03-21T22:21:23.038Z,27.15
2023-03-21T22:23:50.399Z,27.38
2023-03-21T22:26:17.578Z,24.83
2023-03-21T22:28:44.661Z,22.40
2023-03-21T22:31:15.875Z,21.05
2023-03-21T22:33:44.042Z,22.25
2023-03-21T22:36:11.643Z,22.60
2023-03-21T22:38:38.850Z,22.00
2023-03-21T22:41:06.726Z,21.13
2023-03-21T22:43:35.328Z,20.33
2023-03-21T22:46:04.751Z,20.40
2023-03-21T22:48:32.487Z,21.75
2023-03-21T22:53:34.228Z,20.07
2023-03-21T22:56:01.325Z,19.80
2023-03-21T22:58:28.286Z,19.38
2023-03-21T23:01:02.126Z,19.13
2023-03-21T23:03:29.248Z,18.92
2023-03-21T23:06:01.376Z,19.33
2023-03-21T23:08:28.804Z,18.30
2023-03-21T23:10:56.309Z,18.95
2023-03-21T23:13:23.842Z,19.60
2023-03-21T23:15:51.283Z,18.50
2023-03-21T23:18:18.408Z,19.57
2023-03-21T23:20:49.570Z,20.60
2023-03-21T23:23:16.790Z,20.60
2023-03-21T23:25:43.774Z,20.23
2023-03-21T23:28:10.969Z,21.65
2023-03-21T23:30:39.238Z,20.98
2023-03-21T23:33:06.431Z,22.13
2023-03-21T23:35:36.094Z,19.83
2023-03-21T23:38:03.127Z,20.10
2023-03-21T23:40:30.924Z,19.88
2023-03-21T23:42:59.716Z,20.15
2023-03-21T23:45:27.005Z,21.23
2023-03-21T23:47:53.986Z,21.50
2023-03-21T23:50:21.048Z,22.85
2023-03-21T23:52:48.136Z,21.58
2023-03-21T23:55:15.314Z,20.30
2023-03-21T23:57:43.891Z,20.43
